createdAt,value
2023-05-11T00:01:19.826Z,101473.94
2023-05-11T00:04:23.409Z,101481.31
2023-05-11T00:07:27.082Z,101475.97
2023-05-11T00:10:31.224Z,101489.13
2023-05-11T00:13:36.227Z,101481.25
2023-05-11T00:16:39.740Z,101482.28
2023-05-11T00:19:43.269Z,101480.31
2023-05-11T00:22:46.800Z,101482.53
2023-05-11T00:25:50.328Z,101484.38
2023-05-11T00:28:55.261Z,101487.72
2023-05-11T00:31:58.793Z,101491.44
2023-05-11T00:35:02.404Z,101489.44
2023-05-11T00:38:06.076Z,101485.22
2023-05-11T00:41:10.039Z,101481.00
2023-05-11T00:44:15.185Z,101477.72
2023-05-11T00:47:19.037Z,101482.00
2023-05-11T00:50:22.981Z,101484.53
2023-05-11T00:53:27.055Z,101476.88
2023-05-11T00:56:30.808Z,101486.41
2023-05-11T00:59:36.598Z,101473.63
2023-05-11T01:02:41.811Z,101476.00
2023-05-11T01:05:54.078Z,101473.38
2023-05-11T01:09:07.218Z,101480.28
2023-05-11T01:12:25.669Z,101482.06
2023-05-11T01:15:40.058Z,101486.34
2023-05-11T01:18:53.265Z,101487.47
2023-05-11T01:21:57.042Z,101480.38
2023-05-11T01:25:23.080Z,101478.50
2023-05-11T01:28:58.681Z,101476.00
2023-05-11T01:32:15.500Z,101482.91
2023-05-11T01:35:23.419Z,101477.72
2023-05-11T01:38:33.593Z,101490.81
2023-05-11T01:41:41.370Z,101488.16
2023-05-11T01:44:51.543Z,101489.19
2023-05-11T01:47:59.054Z,101487.63
2023-05-11T01:51:05.688Z,101492.69
2023-05-11T01:54:11.248Z,101492.75
2023-05-11T01:57:16.466Z,101497.06
2023-05-11T02:00:21.808Z,101499.03
2023-05-11T02:03:29.551Z,101500.66
2023-05-11T02:06:36.814Z,101500.56
2023-05-11T02:09:41.694Z,101502.28
2023-05-11T02:12:47.358Z,101499.56
2023-05-11T02:15:54.694Z,101502.38
2023-05-11T02:19:01.262Z,101507.56
2023-05-11T02:22:06.626Z,101510.88
2023-05-11T02:25:12.583Z,101511.81
2023-05-11T02:28:17.616Z,101507.53
2023-05-11T02:31:26.830Z,101506.81
2023-05-11T02:34:42.168Z,101506.88
2023-05-11T02:37:50.702Z,101507.56
2023-05-11T02:40:59.992Z,101513.91
2023-05-11T02:44:08.637Z,101516.41
2023-05-11T02:47:16.444Z,101520.72
2023-05-11T02:50:24.425Z,101521.41
2023-05-11T02:53:33.393Z,101525.75
2023-05-11T02:56:37.950Z,101526.53
2023-05-11T02:59:41.673Z,101523.91
2023-05-11T03:02:45.336Z,101535.19
2023-05-11T03:05:50.297Z,101526.47
2023-05-11T03:08:54.375Z,101525.69
2023-05-11T03:11:59.051Z,101526.66
2023-05-11T03:15:05.882Z,101527.44
2023-05-11T03:18:10.334Z,101529.91
2023-05-11T03:21:20.794Z,101529.88
2023-05-11T03:24:26.200Z,101521.13
2023-05-11T03:27:31.533Z,101522.81
2023-05-11T03:30:36.478Z,101525.63
2023-05-11T03:33:40.006Z,101519.56
2023-05-11T03:36:49.574Z,101520.63
2023-05-11T03:39:59.250Z,101519.72
2023-05-11T03:43:06.331Z,101526.75
2023-05-11T03:46:13.278Z,101520.53
2023-05-11T03:49:18.177Z,101520.84
2023-05-11T03:52:24.429Z,101518.28
2023-05-11T03:55:28.257Z,101530.50
2023-05-11T03:58:33.262Z,101525.47
2023-05-11T04:01:37.419Z,101530.53
2023-05-11T04:04:41.057Z,101520.84
2023-05-11T04:07:46.393Z,101531.63
2023-05-11T04:10:49.907Z,101529.69
2023-05-11T04:13:53.448Z,101534.22
2023-05-11T04:16:57.056Z,101537.19
2023-05-11T04:20:00.758Z,101537.00
2023-05-11T04:23:06.307Z,101538.44
2023-05-11T04:26:10.814Z,101535.53
2023-05-11T04:29:14.333Z,101535.22
2023-05-11T04:32:17.839Z,101543.09
2023-05-11T04:35:22.002Z,101541.28
2023-05-11T04:38:27.498Z,101540.47
2023-05-11T04:41:31.212Z,101537.03
2023-05-11T04:44:34.718Z,101540.41
2023-05-11T04:47:38.231Z,101537.84
2023-05-11T04:50:41.950Z,101537.47
2023-05-11T04:53:47.542Z,101536.72
2023-05-11T04:56:51.093Z,101537.53
2023-05-11T04:59:54.566Z,101541.81
2023-05-11T05:02:58.241Z,101536.44
2023-05-11T05:06:01.749Z,101539.09
2023-05-11T05:09:07.013Z,101536.47
2023-05-11T05:12:10.483Z,101543.38
2023-05-11T05:15:14.330Z,101538.78
2023-05-11T05:18:17.879Z,101539.66
2023-05-11T05:21:21.517Z,101535.47
2023-05-11T05:24:26.521Z,101542.50
2023-05-11T05:27:30.794Z,101537.75
2023-05-11T05:30:37.193Z,101542.75
2023-05-11T05:33:41.033Z,101543.84
2023-05-11T05:36:44.500Z,101545.38
2023-05-11T05:39:49.385Z,101547.88
2023-05-11T05:42:53.141Z,101552.44
2023-05-11T05:45:56.776Z,101553.25
2023-05-11T05:49:00.493Z,101561.72
2023-05-11T05:52:04.118Z,101565.38
2023-05-11T05:55:10.121Z,101567.66
2023-05-11T05:58:13.820Z,101575.09
2023-05-11T06:01:17.421Z,101570.16
2023-05-11T06:04:21.029Z,101578.78
2023-05-11T06:07:24.657Z,101577.19
2023-05-11T06:10:29.623Z,101584.22
2023-05-11T06:13:33.112Z,101584.44
2023-05-11T06:16:36.654Z,101580.00
2023-05-11T06:19:40.606Z,101578.78
2023-05-11T06:22:44.148Z,101577.75
2023-05-11T06:25:49.057Z,101566.22
2023-05-11T06:28:52.874Z,101579.81
2023-05-11T06:31:56.688Z,101579.59
2023-05-11T06:35:00.244Z,101576.09
2023-05-11T06:38:03.769Z,101570.94
2023-05-11T06:41:11.388Z,101580.47
2023-05-11T06:44:15.005Z,101574.13
2023-05-11T06:47:18.482Z,101573.13
2023-05-11T06:50:23.399Z,101565.25
2023-05-11T06:53:28.749Z,101566.34
2023-05-11T06:56:34.163Z,101568.38
2023-05-11T06:59:37.644Z,101569.38
2023-05-11T07:02:41.154Z,101562.41
2023-05-11T07:05:44.953Z,101566.19
2023-05-11T07:08:48.477Z,101568.38
2023-05-11T07:11:53.700Z,101564.69
2023-05-11T07:14:57.133Z,101566.63
2023-05-11T07:18:01.466Z,101575.22
2023-05-11T07:21:05.229Z,101570.28
2023-05-11T07:24:08.968Z,101567.31
2023-05-11T07:27:14.965Z,101571.41
2023-05-11T07:30:19.009Z,101575.47
2023-05-11T07:33:22.596Z,101574.78
2023-05-11T07:36:26.576Z,101575.66
2023-05-11T07:39:30.107Z,101578.75
2023-05-11T07:42:35.008Z,101574.59
2023-05-11T07:45:38.573Z,101568.00
2023-05-11T07:48:42.125Z,101574.44
2023-05-11T07:51:45.850Z,101575.31
2023-05-11T07:54:49.388Z,101578.75
2023-05-11T07:57:55.713Z,101577.34
2023-05-11T08:00:59.906Z,101580.13
2023-05-11T08:04:03.432Z,101578.16
2023-05-11T08:07:07.225Z,101572.03
2023-05-11T08:10:12.963Z,101574.63
2023-05-11T08:13:17.853Z,101574.38
2023-05-11T08:16:21.400Z,101575.09
2023-05-11T08:19:24.939Z,101574.94
2023-05-11T08:22:28.486Z,101575.72
2023-05-11T08:25:32.425Z,101586.22
2023-05-11T08:28:37.281Z,101576.00
2023-05-11T08:31:41.019Z,101579.13
2023-05-11T08:34:45.932Z,101579.53
2023-05-11T08:37:49.526Z,101582.03
2023-05-11T08:40:54.014Z,101577.09
2023-05-11T08:44:02.123Z,101589.53
2023-05-11T08:47:21.952Z,101588.84
2023-05-11T08:50:26.613Z,101587.19
2023-05-11T08:53:30.257Z,101578.84
2023-05-11T08:56:36.108Z,101574.72
2023-05-11T08:59:42.650Z,101576.09
2023-05-11T09:02:47.497Z,101585.88
2023-05-11T09:05:51.823Z,101593.47
2023-05-11T09:08:55.796Z,101582.38
2023-05-11T09:11:59.525Z,101588.03
2023-05-11T09:15:04.715Z,101580.91
2023-05-11T09:18:08.735Z,101585.50
2023-05-11T09:21:14.032Z,101580.81
2023-05-11T09:24:17.634Z,101595.72
2023-05-11T09:27:21.507Z,101592.56
2023-05-11T09:30:26.793Z,101597.00
2023-05-11T09:33:30.398Z,101592.22
2023-05-11T09:36:33.999Z,101599.09
2023-05-11T09:39:44.571Z,101587.41
2023-05-11T09:42:51.104Z,101589.06
2023-05-11T09:45:58.103Z,101585.13
2023-05-11T09:49:02.333Z,101579.63
2023-05-11T09:52:06.830Z,101586.25
2023-05-11T09:55:12.219Z,101586.59
2023-05-11T09:58:16.297Z,101587.22
2023-05-11T10:01:32.400Z,101578.13
2023-05-11T10:04:36.217Z,101588.88
2023-05-11T10:07:40.042Z,101577.19
2023-05-11T10:10:43.798Z,101579.53
2023-05-11T10:13:47.659Z,101574.44
2023-05-11T10:16:54.957Z,101583.28
2023-05-11T10:20:00.190Z,101577.63
2023-05-11T10:23:04.852Z,101576.66
2023-05-11T10:26:08.553Z,101580.44
2023-05-11T10:29:13.339Z,101568.03
2023-05-11T10:32:19.617Z,101575.28
2023-05-11T10:35:23.689Z,101565.81
2023-05-11T10:38:27.789Z,101577.72
2023-05-11T10:41:53.666Z,101572.06
2023-05-11T10:45:21.604Z,101567.75
2023-05-11T10:49:06.719Z,101568.03
2023-05-11T10:52:43.929Z,101573.38
2023-05-11T10:56:10.191Z,101570.81
2023-05-11T10:59:57.914Z,101571.19
2023-05-11T11:03:11.621Z,101561.97
2023-05-11T11:06:26.032Z,101571.06
2023-05-11T11:09:29.703Z,101566.78
2023-05-11T11:12:35.043Z,101575.91
2023-05-11T11:16:09.903Z,101567.69
2023-05-11T11:19:39.595Z,101572.28
2023-05-11T11:22:48.173Z,101577.66
2023-05-11T11:25:55.011Z,101579.28
2023-05-11T11:29:14.437Z,101579.25
2023-05-11T11:32:28.762Z,101580.16
2023-05-11T11:35:48.852Z,101570.13
2023-05-11T11:39:01.316Z,101580.66
2023-05-11T11:42:08.170Z,101581.63
2023-05-11T11:45:32.336Z,101577.09
2023-05-11T11:48:37.670Z,101580.84
2023-05-11T11:51:42.189Z,101579.31
2023-05-11T11:54:47.372Z,101585.56
2023-05-11T11:57:51.426Z,101584.88
2023-05-11T12:00:56.401Z,101588.94
2023-05-11T12:04:50.991Z,101589.13
2023-05-11T12:07:55.261Z,101584.53
2023-05-11T12:11:01.485Z,101587.06
2023-05-11T12:14:05.834Z,101584.22
2023-05-11T12:17:15.971Z,101592.31
2023-05-11T12:20:21.900Z,101582.34
2023-05-11T12:23:25.478Z,101589.19
2023-05-11T12:26:32.245Z,101592.88
2023-05-11T12:29:35.797Z,101597.53
2023-05-11T12:32:39.991Z,101599.97
2023-05-11T12:35:46.291Z,101594.84
2023-05-11T12:38:51.035Z,101591.41
2023-05-11T12:41:57.399Z,101588.81
2023-05-11T12:45:01.100Z,101591.38
2023-05-11T12:48:05.930Z,101587.94
2023-05-11T12:51:09.514Z,101588.81
2023-05-11T12:54:13.089Z,101582.66
2023-05-11T12:57:26.946Z,101585.00
2023-05-11T13:00:30.480Z,101589.97
2023-05-11T13:03:36.111Z,101588.78
2023-05-11T13:06:39.936Z,101588.56
2023-05-11T13:09:43.716Z,101584.38
2023-05-11T13:12:52.927Z,101583.09
2023-05-11T13:15:56.786Z,101582.34
2023-05-11T13:19:01.846Z,101582.53
2023-05-11T13:22:06.584Z,101575.69
2023-05-11T13:25:10.873Z,101570.28
2023-05-11T13:28:17.642Z,101575.50
2023-05-11T13:31:21.481Z,101563.78
2023-05-11T13:34:26.988Z,101572.41
2023-05-11T13:37:30.610Z,101571.44
2023-05-11T13:40:35.010Z,101551.59
2023-05-11T13:43:40.277Z,101556.75
2023-05-11T13:46:43.988Z,101554.50
2023-05-11T13:49:47.540Z,101556.25
2023-05-11T13:52:51.632Z,101552.09
2023-05-11T13:55:55.158Z,101553.59
2023-05-11T13:59:00.319Z,101555.53
2023-05-11T14:02:04.142Z,101554.06
2023-05-11T14:05:09.145Z,101551.91
2023-05-11T14:08:12.628Z,101545.09
2023-05-11T14:11:16.379Z,101543.94
2023-05-11T14:14:21.246Z,101541.63
2023-05-11T14:17:24.912Z,101545.34
2023-05-11T14:20:28.557Z,101541.56
2023-05-11T14:23:32.061Z,101535.88
2023-05-11T14:26:35.600Z,101534.25
2023-05-11T14:29:43.300Z,101543.13
2023-05-11T14:32:48.629Z,101534.03
2023-05-11T14:35:52.471Z,101530.72
2023-05-11T14:38:55.919Z,101536.97
2023-05-11T14:41:59.405Z,101538.06
2023-05-11T14:45:04.447Z,101538.94
2023-05-11T14:48:08.620Z,101541.97
2023-05-11T14:51:12.210Z,101535.88
2023-05-11T14:54:15.846Z,101535.44
2023-05-11T14:57:19.379Z,101534.63
2023-05-11T15:00:24.544Z,101535.88
2023-05-11T15:03:28.672Z,101540.16
2023-05-11T15:06:32.432Z,101540.66
2023-05-11T15:09:35.915Z,101544.00
2023-05-11T15:12:39.646Z,101538.69
2023-05-11T15:15:44.576Z,101525.22
2023-05-11T15:18:48.190Z,101531.53
2023-05-11T15:21:51.699Z,101542.53
2023-05-11T15:24:56.067Z,101539.19
2023-05-11T15:27:59.712Z,101537.47
2023-05-11T15:31:04.681Z,101544.13
2023-05-11T15:34:08.414Z,101542.38
2023-05-11T15:37:12.548Z,101550.38
2023-05-11T15:40:16.309Z,101543.84
2023-05-11T15:43:19.933Z,101551.19
2023-05-11T15:46:24.953Z,101550.34
2023-05-11T15:49:28.552Z,101548.25
2023-05-11T15:52:32.115Z,101549.59
2023-05-11T15:55:36.995Z,101567.69
2023-05-11T15:58:40.520Z,101574.00
2023-05-11T16:01:45.578Z,101593.50
2023-05-11T16:04:49.274Z,101591.94
2023-05-11T16:07:52.874Z,101591.19
2023-05-11T16:10:56.394Z,101592.38
2023-05-11T16:14:00.292Z,101595.22
2023-05-11T16:17:05.923Z,101595.50
2023-05-11T16:20:11.241Z,101614.88
2023-05-11T16:23:14.737Z,101621.94
2023-05-11T16:26:18.260Z,101597.66
2023-05-11T16:29:21.738Z,101584.72
2023-05-11T16:32:27.015Z,101571.94
2023-05-11T16:35:30.741Z,101575.50
2023-05-11T16:38:34.200Z,101580.09
2023-05-11T16:41:37.729Z,101582.03
2023-05-11T16:44:41.225Z,101588.44
2023-05-11T16:47:46.306Z,101580.44
2023-05-11T16:50:49.976Z,101564.81
2023-05-11T16:53:53.491Z,101561.50
2023-05-11T16:56:57.818Z,101562.53
2023-05-11T17:00:01.241Z,101565.94
2023-05-11T17:03:06.425Z,101559.78
2023-05-11T17:06:13.569Z,101560.69
2023-05-11T17:09:17.330Z,101562.41
2023-05-11T17:12:20.782Z,101567.47
2023-05-11T17:15:24.428Z,101564.94
2023-05-11T17:18:29.378Z,101563.09
2023-05-11T17:21:33.447Z,101554.63
2023-05-11T17:24:37.194Z,101560.69
2023-05-11T17:27:41.802Z,101559.81
2023-05-11T17:30:48.825Z,101554.69
2023-05-11T17:33:54.412Z,101563.25
2023-05-11T17:36:58.577Z,101565.16
2023-05-11T17:40:02.685Z,101567.06
2023-05-11T17:43:06.201Z,101568.03
2023-05-11T17:46:09.834Z,101576.66
2023-05-11T17:49:14.907Z,101576.59
2023-05-11T17:52:18.958Z,101584.63
2023-05-11T17:55:24.166Z,101591.59
2023-05-11T17:58:27.971Z,101586.47
2023-05-11T18:01:31.879Z,101587.25
2023-05-11T18:04:36.918Z,101583.09
2023-05-11T18:07:40.605Z,101593.66
2023-05-11T18:10:44.296Z,101597.97
2023-05-11T18:13:47.977Z,101597.28
2023-05-11T18:16:54.089Z,101597.97
2023-05-11T18:19:59.057Z,101600.50
2023-05-11T18:23:02.636Z,101591.75
2023-05-11T18:26:06.987Z,101601.78
2023-05-11T18:29:10.593Z,101598.28
2023-05-11T18:32:14.149Z,101604.50
2023-05-11T18:35:19.985Z,101603.69
2023-05-11T18:38:23.484Z,101595.72
2023-05-11T18:41:27.247Z,101601.88
2023-05-11T18:44:30.867Z,101599.47
2023-05-11T18:47:35.786Z,101603.03
2023-05-11T18:50:40.685Z,101604.09
2023-05-11T18:53:44.212Z,101611.19
2023-05-11T18:56:47.710Z,101601.69
2023-05-11T18:59:52.650Z,101611.50
2023-05-11T19:02:56.627Z,101609.88
2023-05-11T19:06:02.730Z,101610.91
2023-05-11T19:09:06.825Z,101617.06
2023-05-11T19:12:10.868Z,101616.34
2023-05-11T19:15:14.368Z,101629.50
2023-05-11T19:18:18.407Z,101632.22
2023-05-11T19:21:23.346Z,101636.66
2023-05-11T19:24:28.512Z,101645.38
2023-05-11T19:27:32.186Z,101644.50
2023-05-11T19:30:35.953Z,101658.47
2023-05-11T19:33:39.465Z,101664.56
2023-05-11T19:36:44.638Z,101665.34
2023-05-11T19:39:48.798Z,101678.47
2023-05-11T19:42:52.873Z,101683.69
2023-05-11T19:45:57.087Z,101679.25
2023-05-11T19:49:00.651Z,101685.31
2023-05-11T19:52:06.122Z,101696.63
2023-05-11T19:55:10.333Z,101695.75
2023-05-11T19:58:13.947Z,101692.28
2023-05-11T20:01:17.552Z,101686.06
2023-05-11T20:04:21.141Z,101690.47
2023-05-11T20:07:26.316Z,101682.59
2023-05-11T20:10:29.967Z,101684.38
2023-05-11T20:13:34.339Z,101682.59
2023-05-11T20:16:38.089Z,101680.00
2023-05-11T20:19:41.838Z,101675.69
2023-05-11T20:22:46.772Z,101685.38
2023-05-11T20:25:50.506Z,101677.47
2023-05-11T20:28:54.072Z,101680.19
2023-05-11T20:31:57.706Z,101680.41
2023-05-11T20:35:01.370Z,101684.97
2023-05-11T20:38:06.896Z,101683.34
2023-05-11T20:41:10.575Z,101691.34
2023-05-11T20:44:14.084Z,101691.34
2023-05-11T20:47:17.802Z,101695.00
2023-05-11T20:50:21.880Z,101693.38
2023-05-11T20:53:27.092Z,101698.66
2023-05-11T20:56:30.611Z,101699.53
2023-05-11T21:02:40.755Z,101682.00
2023-05-11T21:05:44.293Z,101678.56
2023-05-11T21:08:49.311Z,101676.00
2023-05-11T21:11:52.828Z,101680.38
2023-05-11T21:14:57.062Z,101668.09
2023-05-11T21:18:02.020Z,101678.56
2023-05-11T21:21:06.595Z,101680.22
2023-05-11T21:24:13.908Z,101687.34
2023-05-11T21:27:17.547Z,101688.22
2023-05-11T21:30:21.456Z,101675.94
2023-05-11T21:33:25.489Z,101671.56
2023-05-11T21:36:29.320Z,101660.16
2023-05-11T21:39:34.538Z,101665.47
2023-05-11T21:42:38.066Z,101668.84
2023-05-11T21:45:41.523Z,101668.81
2023-05-11T21:48:45.386Z,101658.47
2023-05-11T21:51:50.150Z,101666.44
2023-05-11T21:54:55.081Z,101664.66
2023-05-11T21:57:58.639Z,101675.09
2023-05-11T22:01:02.625Z,101673.31
2023-05-11T22:04:06.675Z,101676.66
2023-05-11T22:07:10.631Z,101679.22
2023-05-11T22:10:15.638Z,101685.38
2023-05-11T22:13:19.302Z,101687.13
2023-05-11T22:16:22.869Z,101698.59
2023-05-11T22:19:27.212Z,101693.38
2023-05-11T22:22:30.807Z,101689.81
2023-05-11T22:25:35.739Z,101684.59
2023-05-11T22:28:39.392Z,101688.09
2023-05-11T22:31:45.916Z,101696.91
2023-05-11T22:34:59.367Z,101692.47
2023-05-11T22:38:04.319Z,101700.38
2023-05-11T22:41:09.645Z,101692.72
2023-05-11T22:44:13.160Z,101698.88
2023-05-11T22:47:16.769Z,101703.28
2023-05-11T22:50:20.549Z,101705.78
2023-05-11T22:53:24.179Z,101710.28
2023-05-11T22:56:30.613Z,101698.91
2023-05-11T22:59:34.504Z,101707.78
2023-05-11T23:02:38.633Z,101709.81
2023-05-11T23:05:42.137Z,101714.09
2023-05-11T23:08:45.829Z,101711.50
2023-05-11T23:11:50.633Z,101719.53
2023-05-11T23:14:54.138Z,101718.69
2023-05-11T23:17:57.690Z,101712.66
2023-05-11T23:21:01.804Z,101713.66
2023-05-11T23:24:07.073Z,101716.47
2023-05-11T23:27:12.169Z,101713.03
2023-05-11T23:30:15.960Z,101706.13
2023-05-11T23:33:19.569Z,101703.53
2023-05-11T23:36:23.241Z,101708.91
2023-05-11T23:39:26.754Z,101711.75
2023-05-11T23:42:32.004Z,101720.63
2023-05-11T23:45:35.983Z,101726.00
2023-05-11T23:48:40.465Z,101726.09
2023-05-11T23:51:44.565Z,101725.25
2023-05-11T23:54:49.455Z,101715.66
2023-05-11T23:57:55.746Z,101714.03
